createdAt,value
2022-07-26T00:01:01.308Z,100.00
2022-07-26T00:03:29.301Z,100.00
2022-07-26T00:05:57.065Z,100.00
2022-07-26T00:08:24.974Z,100.00
2022-07-26T00:10:53.319Z,100.00
2022-07-26T00:13:21.571Z,100.00
2022-07-26T00:15:49.415Z,100.00
2022-07-26T00:18:18.404Z,100.00
2022-07-26T00:20:47.211Z,100.00
2022-07-26T00:23:15.113Z,100.00
2022-07-26T00:25:42.736Z,100.00
2022-07-26T00:28:10.775Z,100.00
2022-07-26T00:30:39.597Z,100.00
2022-07-26T00:33:07.630Z,100.00
2022-07-26T00:35:36.156Z,100.00
2022-07-26T00:38:03.870Z,100.00
2022-07-26T00:40:31.744Z,100.00
2022-07-26T00:42:59.336Z,100.00
2022-07-26T00:45:27.190Z,100.00
2022-07-26T00:47:54.877Z,100.00
2022-07-26T00:50:22.648Z,100.00
2022-07-26T00:52:50.421Z,100.00
2022-07-26T00:55:18.355Z,100.00
2022-07-26T00:57:46.816Z,100.00
2022-07-26T01:00:17.254Z,100.00
2022-07-26T01:02:45.102Z,100.00
2022-07-26T01:05:13.194Z,100.00
2022-07-26T01:07:41.899Z,100.00
2022-07-26T01:10:12.733Z,100.00
2022-07-26T01:12:43.541Z,100.00
2022-07-26T01:15:13.778Z,100.00
2022-07-26T01:17:42.319Z,100.00
2022-07-26T01:20:11.470Z,100.00
2022-07-26T01:22:39.295Z,100.00
2022-07-26T01:25:07.171Z,100.00
2022-07-26T01:27:39.561Z,100.00
2022-07-26T01:30:09.159Z,100.00
2022-07-26T01:32:37.119Z,100.00
2022-07-26T01:35:07.430Z,100.00
2022-07-26T01:37:35.230Z,100.00
2022-07-26T01:40:03.687Z,100.00
2022-07-26T01:42:33.756Z,100.00
2022-07-26T01:45:01.469Z,100.00
2022-07-26T01:47:29.265Z,100.00
2022-07-26T01:49:57.783Z,100.00
2022-07-26T01:52:26.842Z,100.00
2022-07-26T01:54:54.454Z,100.00
2022-07-26T01:57:22.174Z,100.00
2022-07-26T01:59:50.009Z,100.00
2022-07-26T02:02:17.776Z,100.00
2022-07-26T02:05:01.392Z,100.00
2022-07-26T02:07:30.648Z,100.00
2022-07-26T02:10:00.298Z,100.00
2022-07-26T02:12:28.476Z,100.00
2022-07-26T02:14:56.177Z,100.00
2022-07-26T02:17:23.822Z,100.00
2022-07-26T02:19:53.560Z,100.00
2022-07-26T02:22:21.273Z,100.00
2022-07-26T02:24:49.199Z,100.00
2022-07-26T02:27:17.268Z,100.00
2022-07-26T02:29:45.086Z,100.00
2022-07-26T02:32:12.817Z,100.00
2022-07-26T02:34:40.469Z,100.00
2022-07-26T02:37:08.125Z,100.00
2022-07-26T02:39:35.788Z,100.00
2022-07-26T02:42:03.767Z,100.00
2022-07-26T02:44:31.652Z,100.00
2022-07-26T02:46:59.479Z,100.00
2022-07-26T02:49:27.263Z,100.00
2022-07-26T02:51:54.884Z,100.00
2022-07-26T02:54:22.847Z,100.00
2022-07-26T02:56:50.460Z,100.00
2022-07-26T02:59:18.149Z,100.00
2022-07-26T03:01:45.845Z,100.00
2022-07-26T03:04:13.617Z,100.00
2022-07-26T03:06:41.322Z,100.00
2022-07-26T03:09:09.129Z,100.00
2022-07-26T03:11:36.786Z,100.00
2022-07-26T03:14:04.602Z,100.00
2022-07-26T03:16:32.532Z,100.00
2022-07-26T03:19:00.866Z,100.00
2022-07-26T03:21:28.676Z,100.00
2022-07-26T03:23:56.328Z,100.00
2022-07-26T03:26:23.961Z,100.00
2022-07-26T03:28:51.604Z,100.00
2022-07-26T03:31:19.290Z,100.00
2022-07-26T03:33:46.967Z,100.00
2022-07-26T03:36:15.703Z,100.00
2022-07-26T03:38:43.959Z,100.00
2022-07-26T03:41:13.434Z,100.00
2022-07-26T03:43:41.492Z,100.00
2022-07-26T03:46:09.269Z,100.00
2022-07-26T03:48:37.118Z,98.15
2022-07-26T03:51:04.806Z,93.36
2022-07-26T03:53:32.804Z,89.89
2022-07-26T03:56:19.227Z,90.12
2022-07-26T03:58:46.839Z,87.88
2022-07-26T04:01:14.528Z,86.38
2022-07-26T04:03:45.748Z,84.25
2022-07-26T04:06:15.398Z,83.27
2022-07-26T04:08:43.280Z,80.65
2022-07-26T04:11:11.041Z,79.97
2022-07-26T04:13:38.722Z,79.86
2022-07-26T04:16:06.813Z,80.76
2022-07-26T04:18:34.461Z,80.60
2022-07-26T04:21:02.130Z,79.45
2022-07-26T04:23:29.881Z,78.66
2022-07-26T04:25:57.582Z,76.89
2022-07-26T04:28:28.963Z,75.33
2022-07-26T04:30:56.856Z,77.91
2022-07-26T04:33:24.813Z,76.08
2022-07-26T04:35:53.353Z,75.29
2022-07-26T04:38:21.039Z,75.33
2022-07-26T04:40:50.089Z,77.89
2022-07-26T04:43:18.149Z,76.40
2022-07-26T04:45:46.507Z,77.12
2022-07-26T04:48:14.656Z,79.02
2022-07-26T04:50:42.960Z,75.82
2022-07-26T04:53:13.512Z,74.45
2022-07-26T04:55:41.315Z,74.25
2022-07-26T04:58:09.607Z,72.61
2022-07-26T05:01:02.662Z,74.44
2022-07-26T05:03:25.512Z,74.44
2022-07-26T05:05:53.633Z,72.27
2022-07-26T05:08:21.337Z,71.24
2022-07-26T05:10:54.771Z,69.83
2022-07-26T05:13:30.339Z,69.02
2022-07-26T05:15:59.873Z,68.79
2022-07-26T05:18:31.943Z,67.03
2022-07-26T05:21:13.849Z,66.11
2022-07-26T05:23:41.601Z,68.86
2022-07-26T05:26:10.817Z,67.86
2022-07-26T05:28:39.345Z,67.07
2022-07-26T05:31:07.345Z,64.95
2022-07-26T05:33:35.107Z,66.46
2022-07-26T05:36:02.875Z,68.12
2022-07-26T05:38:30.599Z,65.31
2022-07-26T05:40:58.383Z,64.51
2022-07-26T05:43:27.745Z,63.34
2022-07-26T05:46:10.091Z,61.04
2022-07-26T05:48:38.757Z,61.38
2022-07-26T05:51:06.469Z,61.97
2022-07-26T05:53:34.976Z,61.85
2022-07-26T05:56:02.685Z,61.87
2022-07-26T05:58:30.361Z,61.15
2022-07-26T06:00:58.113Z,61.94
2022-07-26T06:03:26.139Z,62.72
2022-07-26T06:05:56.904Z,64.52
2022-07-26T06:08:25.609Z,67.14
2022-07-26T06:10:53.378Z,68.85
2022-07-26T06:13:21.002Z,69.15
2022-07-26T06:15:48.711Z,70.71
2022-07-26T06:18:16.387Z,71.24
2022-07-26T06:20:46.200Z,72.71
2022-07-26T06:23:15.010Z,72.92
2022-07-26T06:25:43.524Z,72.33
2022-07-26T06:28:11.913Z,72.61
2022-07-26T06:30:39.940Z,74.38
2022-07-26T06:33:09.730Z,74.61
2022-07-26T06:35:38.971Z,72.50
2022-07-26T06:38:07.087Z,73.01
2022-07-26T06:40:34.997Z,73.68
2022-07-26T06:43:04.484Z,73.26
2022-07-26T06:45:34.174Z,72.89
2022-07-26T06:48:03.925Z,73.25
2022-07-26T06:50:31.767Z,73.11
2022-07-26T06:52:59.508Z,72.29
2022-07-26T06:55:27.221Z,73.69
2022-07-26T06:57:54.833Z,72.49
2022-07-26T07:00:22.701Z,72.22
2022-07-26T07:02:52.778Z,70.84
2022-07-26T07:05:20.700Z,71.37
2022-07-26T07:07:48.653Z,71.86
2022-07-26T07:10:16.577Z,71.50
2022-07-26T07:12:49.507Z,70.71
2022-07-26T07:15:17.643Z,69.59
2022-07-26T07:17:45.268Z,68.42
2022-07-26T07:20:16.545Z,68.84
2022-07-26T07:22:44.795Z,70.58
2022-07-26T07:25:14.673Z,71.24
2022-07-26T07:27:43.042Z,70.22
2022-07-26T07:30:12.320Z,67.99
2022-07-26T07:32:40.573Z,67.89
2022-07-26T07:35:12.902Z,67.22
2022-07-26T07:37:53.166Z,67.06
2022-07-26T07:40:22.122Z,67.24
2022-07-26T07:42:50.472Z,66.42
2022-07-26T07:45:18.220Z,65.54
2022-07-26T07:47:47.383Z,65.17
2022-07-26T07:50:18.289Z,66.18
2022-07-26T07:52:46.702Z,65.17
2022-07-26T07:55:36.026Z,64.78
2022-07-26T07:58:03.408Z,64.86
2022-07-26T08:00:31.111Z,65.43
2022-07-26T08:02:58.774Z,65.20
2022-07-26T08:05:26.453Z,66.76
2022-07-26T08:07:54.564Z,65.89
2022-07-26T08:10:22.553Z,66.56
2022-07-26T08:12:51.299Z,67.00
2022-07-26T08:15:19.751Z,66.89
2022-07-26T08:17:54.063Z,66.90
2022-07-26T08:20:24.911Z,64.83
2022-07-26T08:22:53.366Z,62.98
2022-07-26T08:25:21.161Z,61.67
2022-07-26T08:28:04.099Z,60.60
2022-07-26T08:30:32.749Z,60.34
2022-07-26T08:33:00.566Z,59.40
2022-07-26T08:35:29.725Z,59.26
2022-07-26T08:37:57.806Z,56.27
2022-07-26T08:40:25.524Z,54.54
2022-07-26T08:42:54.421Z,54.72
2022-07-26T08:45:26.345Z,58.27
2022-07-26T08:48:16.171Z,59.17
2022-07-26T08:50:41.845Z,58.49
2022-07-26T08:53:09.589Z,57.34
2022-07-26T08:56:05.341Z,55.19
2022-07-26T08:58:28.095Z,54.36
2022-07-26T09:01:09.377Z,52.96
2022-07-26T09:03:44.023Z,52.84
2022-07-26T09:06:19.184Z,54.34
2022-07-26T09:08:51.305Z,52.11
2022-07-26T09:11:25.279Z,53.04
2022-07-26T09:14:05.224Z,54.23
2022-07-26T09:16:39.206Z,55.38
2022-07-26T09:19:15.880Z,54.80
2022-07-26T09:21:43.940Z,55.13
2022-07-26T09:24:11.589Z,52.72
2022-07-26T09:26:40.402Z,53.63
2022-07-26T09:29:12.938Z,53.80
2022-07-26T09:31:41.739Z,54.79
2022-07-26T09:34:09.715Z,54.98
2022-07-26T09:36:54.087Z,55.58
2022-07-26T09:39:33.703Z,56.25
2022-07-26T09:44:57.248Z,57.11
2022-07-26T09:47:38.537Z,56.61
2022-07-26T09:50:17.576Z,58.83
2022-07-26T09:52:58.194Z,59.92
2022-07-26T09:55:26.332Z,60.69
2022-07-26T09:57:54.081Z,61.26
2022-07-26T10:00:22.297Z,62.54
2022-07-26T10:02:50.239Z,65.04
2022-07-26T10:05:18.485Z,65.50
2022-07-26T10:07:46.782Z,64.42
2022-07-26T10:10:23.934Z,65.14
2022-07-26T10:12:52.355Z,66.91
2022-07-26T10:15:39.049Z,67.51
2022-07-26T10:18:08.572Z,69.03
2022-07-26T10:20:42.805Z,70.39
2022-07-26T10:23:36.583Z,70.42
2022-07-26T10:26:05.901Z,71.06
2022-07-26T10:28:35.886Z,70.94
2022-07-26T10:31:30.540Z,71.12
2022-07-26T10:34:00.665Z,69.49
2022-07-26T10:36:38.956Z,68.95
2022-07-26T10:39:14.753Z,68.04
2022-07-26T10:41:47.723Z,67.58
2022-07-26T10:44:22.860Z,65.48
2022-07-26T10:47:09.111Z,65.31
2022-07-26T10:49:44.328Z,66.50
2022-07-26T10:52:13.198Z,68.91
2022-07-26T10:54:57.055Z,70.61
2022-07-26T10:57:44.163Z,72.69
2022-07-26T11:00:26.108Z,74.27
2022-07-26T11:02:57.717Z,75.03
2022-07-26T11:05:31.262Z,75.76
2022-07-26T11:08:06.382Z,76.72
2022-07-26T11:10:41.941Z,76.66
2022-07-26T11:13:15.679Z,77.24
2022-07-26T11:16:01.796Z,78.11
2022-07-26T11:18:32.872Z,78.65
2022-07-26T11:21:17.712Z,78.77
2022-07-26T11:23:46.066Z,79.78
2022-07-26T11:26:20.171Z,78.56
2022-07-26T11:28:53.632Z,78.96
2022-07-26T11:31:49.412Z,78.45
2022-07-26T11:34:20.831Z,79.00
2022-07-26T11:36:48.846Z,78.64
2022-07-26T11:39:21.561Z,79.55
2022-07-26T11:41:49.701Z,79.05
2022-07-26T11:44:21.449Z,78.71
2022-07-26T11:46:49.619Z,79.08
2022-07-26T11:49:41.410Z,80.64
2022-07-26T11:52:12.313Z,82.91
2022-07-26T11:54:48.785Z,83.84
2022-07-26T11:57:18.070Z,82.28
2022-07-26T11:59:47.599Z,79.79
2022-07-26T12:02:16.220Z,77.90
2022-07-26T12:04:44.865Z,74.34
2022-07-26T12:07:14.251Z,73.47
2022-07-26T12:09:47.076Z,72.63
2022-07-26T12:12:20.999Z,71.79
2022-07-26T12:15:01.988Z,71.13
2022-07-26T12:17:35.285Z,69.09
2022-07-26T12:20:14.013Z,67.42
2022-07-26T12:22:57.645Z,64.76
2022-07-26T12:25:26.553Z,65.92
2022-07-26T12:27:56.357Z,63.96
2022-07-26T12:30:24.405Z,62.95
2022-07-26T12:32:54.596Z,62.40
2022-07-26T12:35:32.361Z,58.72
2022-07-26T12:38:00.201Z,59.38
2022-07-26T12:40:29.163Z,56.34
2022-07-26T12:43:02.743Z,56.04
2022-07-26T12:45:33.287Z,54.92
2022-07-26T12:48:03.050Z,55.64
2022-07-26T12:50:32.976Z,56.46
2022-07-26T12:53:05.391Z,55.83
2022-07-26T12:55:34.762Z,53.94
2022-07-26T12:58:02.962Z,53.20
2022-07-26T13:00:30.837Z,53.35
2022-07-26T13:02:59.436Z,51.20
2022-07-26T13:05:27.553Z,50.03
2022-07-26T13:07:55.780Z,49.50
2022-07-26T13:10:33.481Z,47.54
2022-07-26T13:13:02.249Z,46.78
2022-07-26T13:15:35.981Z,46.16
2022-07-26T13:18:07.317Z,46.81
2022-07-26T13:20:39.181Z,47.15
2022-07-26T13:23:12.624Z,46.43
2022-07-26T13:25:41.642Z,46.73
2022-07-26T13:28:11.049Z,46.94
2022-07-26T13:30:41.304Z,45.66
2022-07-26T13:33:09.241Z,46.71
2022-07-26T13:35:41.107Z,45.97
2022-07-26T13:38:09.302Z,47.06
2022-07-26T13:40:37.166Z,45.73
2022-07-26T13:43:04.925Z,46.28
2022-07-26T13:45:32.809Z,46.93
2022-07-26T13:48:00.477Z,47.73
2022-07-26T13:50:28.372Z,47.99
2022-07-26T13:52:56.541Z,47.90
2022-07-26T13:55:25.017Z,46.73
2022-07-26T13:57:56.610Z,46.29
2022-07-26T14:00:26.450Z,47.40
2022-07-26T14:02:55.053Z,48.77
2022-07-26T14:05:23.657Z,49.85
2022-07-26T14:07:51.402Z,51.50
2022-07-26T14:10:21.121Z,51.71
2022-07-26T14:12:54.983Z,52.60
2022-07-26T14:15:23.655Z,51.97
2022-07-26T14:18:00.032Z,52.83
2022-07-26T14:20:30.837Z,52.93
2022-07-26T14:22:58.819Z,53.80
2022-07-26T14:25:27.128Z,55.47
2022-07-26T14:27:55.100Z,54.77
2022-07-26T14:30:23.094Z,54.73
2022-07-26T14:32:51.080Z,54.63
2022-07-26T14:35:19.642Z,55.71
2022-07-26T14:37:47.390Z,57.29
2022-07-26T14:40:16.264Z,57.05
2022-07-26T14:42:44.362Z,56.01
2022-07-26T14:45:13.734Z,55.53
2022-07-26T14:47:41.649Z,53.20
2022-07-26T14:50:10.334Z,52.44
2022-07-26T14:52:45.094Z,51.53
2022-07-26T14:55:12.853Z,50.31
2022-07-26T14:57:40.883Z,51.80
2022-07-26T15:00:10.610Z,50.50
2022-07-26T15:02:40.080Z,50.57
2022-07-26T15:05:08.342Z,50.26
2022-07-26T15:07:35.982Z,49.40
2022-07-26T15:10:04.433Z,50.99
2022-07-26T15:12:33.400Z,48.78
2022-07-26T15:15:01.313Z,48.07
2022-07-26T15:17:29.193Z,48.04
2022-07-26T15:19:56.943Z,47.37
2022-07-26T15:22:25.667Z,48.70
2022-07-26T15:24:54.673Z,51.00
2022-07-26T15:27:22.291Z,50.26
2022-07-26T15:29:51.054Z,49.54
2022-07-26T15:32:20.775Z,49.00
2022-07-26T15:34:49.281Z,48.36
2022-07-26T15:37:17.722Z,48.21
2022-07-26T15:39:45.480Z,47.42
2022-07-26T15:42:15.247Z,48.88
2022-07-26T15:44:43.041Z,49.48
2022-07-26T15:47:11.721Z,49.53
2022-07-26T15:49:40.230Z,51.46
2022-07-26T15:52:10.105Z,51.22
2022-07-26T15:54:38.335Z,51.18
2022-07-26T15:57:06.414Z,52.78
2022-07-26T15:59:36.110Z,53.50
2022-07-26T16:02:05.773Z,54.34
2022-07-26T16:04:33.639Z,56.20
2022-07-26T16:07:02.122Z,57.86
2022-07-26T16:09:30.282Z,57.77
2022-07-26T16:12:00.524Z,56.98
2022-07-26T16:14:32.511Z,56.45
2022-07-26T16:17:02.051Z,55.60
2022-07-26T16:19:29.805Z,55.06
2022-07-26T16:21:57.462Z,54.18
2022-07-26T16:24:25.791Z,53.09
2022-07-26T16:26:53.688Z,51.77
2022-07-26T16:29:21.998Z,50.86
2022-07-26T16:31:51.133Z,51.93
2022-07-26T16:34:18.806Z,50.54
2022-07-26T16:36:46.447Z,50.93
2022-07-26T16:39:14.732Z,50.59
2022-07-26T16:41:42.824Z,50.78
2022-07-26T16:44:13.360Z,51.21
2022-07-26T16:46:41.188Z,51.87
2022-07-26T16:49:13.778Z,52.13
2022-07-26T16:51:41.877Z,52.25
2022-07-26T16:54:09.823Z,52.23
2022-07-26T16:56:37.556Z,53.18
2022-07-26T16:59:10.012Z,53.53
2022-07-26T17:01:38.256Z,54.24
2022-07-26T17:04:05.907Z,55.16
2022-07-26T17:06:33.795Z,56.21
2022-07-26T17:09:01.461Z,57.76
2022-07-26T17:11:29.071Z,59.34
2022-07-26T17:13:57.998Z,60.39
2022-07-26T17:16:25.863Z,61.48
2022-07-26T17:18:55.870Z,62.61
2022-07-26T17:21:23.638Z,64.54
2022-07-26T17:23:51.550Z,65.00
2022-07-26T17:26:20.036Z,65.09
2022-07-26T17:28:47.878Z,65.02
2022-07-26T17:31:15.587Z,66.54
2022-07-26T17:33:43.386Z,68.54
2022-07-26T17:36:27.978Z,70.42
2022-07-26T17:38:56.071Z,71.36
2022-07-26T17:41:24.346Z,72.11
2022-07-26T17:44:03.176Z,73.35
2022-07-26T17:46:34.288Z,74.43
2022-07-26T17:49:03.673Z,77.59
2022-07-26T17:51:33.357Z,78.14
2022-07-26T17:54:01.096Z,79.24
2022-07-26T17:56:29.224Z,78.64
2022-07-26T17:58:58.095Z,79.16
2022-07-26T18:01:25.869Z,79.15
2022-07-26T18:03:57.652Z,79.38
2022-07-26T18:06:25.981Z,80.21
2022-07-26T18:08:54.447Z,80.70
2022-07-26T18:11:22.109Z,80.95
2022-07-26T18:13:49.798Z,81.89
2022-07-26T18:16:17.534Z,84.14
2022-07-26T18:18:45.268Z,83.43
2022-07-26T18:21:13.706Z,84.58
2022-07-26T18:24:00.313Z,84.40
2022-07-26T18:26:30.990Z,85.00
2022-07-26T18:28:59.330Z,85.04
2022-07-26T18:31:27.413Z,86.06
2022-07-26T18:33:55.593Z,87.61
2022-07-26T18:36:23.444Z,86.85
2022-07-26T18:38:51.273Z,86.05
2022-07-26T18:41:20.351Z,87.06
2022-07-26T18:43:48.542Z,87.11
2022-07-26T18:46:16.261Z,86.61
2022-07-26T18:48:44.116Z,87.40
2022-07-26T18:51:12.494Z,87.64
2022-07-26T18:53:40.992Z,87.66
2022-07-26T18:56:09.037Z,87.04
2022-07-26T18:58:37.848Z,87.26
2022-07-26T19:01:06.595Z,87.09
2022-07-26T19:03:35.008Z,87.85
2022-07-26T19:06:02.990Z,88.20
2022-07-26T19:08:31.763Z,88.61
2022-07-26T19:10:59.587Z,88.95
2022-07-26T19:13:27.393Z,88.38
2022-07-26T19:15:55.113Z,91.77
2022-07-26T19:18:24.814Z,89.88
2022-07-26T19:20:52.835Z,88.89
2022-07-26T19:23:20.761Z,88.16
2022-07-26T19:25:48.413Z,87.25
2022-07-26T19:28:16.028Z,87.21
2022-07-26T19:30:45.167Z,86.91
2022-07-26T19:33:12.885Z,87.17
2022-07-26T19:35:40.543Z,87.53
2022-07-26T19:38:09.698Z,86.26
2022-07-26T19:40:37.426Z,85.62
2022-07-26T19:43:05.149Z,85.41
2022-07-26T19:45:33.109Z,85.53
2022-07-26T19:48:00.788Z,85.86
2022-07-26T19:50:28.518Z,85.76
2022-07-26T19:52:56.275Z,85.62
2022-07-26T19:55:23.956Z,85.17
2022-07-26T19:57:51.550Z,85.42
2022-07-26T20:00:20.886Z,85.63
2022-07-26T20:02:48.611Z,85.58
2022-07-26T20:05:17.845Z,86.22
2022-07-26T20:07:50.122Z,85.79
2022-07-26T20:10:17.830Z,86.67
2022-07-26T20:12:46.806Z,86.29
2022-07-26T20:15:17.183Z,87.01
2022-07-26T20:17:44.867Z,86.57
2022-07-26T20:20:13.281Z,87.33
2022-07-26T20:22:41.744Z,86.73
2022-07-26T20:25:09.721Z,87.09
2022-07-26T20:27:37.603Z,87.03
2022-07-26T20:30:06.676Z,87.38
2022-07-26T20:32:34.649Z,87.39
2022-07-26T20:35:03.950Z,87.59
2022-07-26T20:37:32.031Z,88.48
2022-07-26T20:39:59.885Z,89.93
2022-07-26T20:42:27.818Z,90.01
2022-07-26T20:44:55.711Z,89.84
2022-07-26T20:47:23.416Z,89.22
2022-07-26T20:49:51.236Z,89.58
2022-07-26T20:52:19.153Z,90.12
2022-07-26T20:54:46.973Z,91.29
2022-07-26T20:57:14.794Z,91.94
2022-07-26T20:59:43.091Z,92.02
2022-07-26T21:02:11.186Z,92.07
2022-07-26T21:04:40.339Z,93.18
2022-07-26T21:07:08.212Z,93.71
2022-07-26T21:09:36.709Z,94.37
2022-07-26T21:12:04.787Z,94.60
2022-07-26T21:14:32.485Z,95.25
2022-07-26T21:17:00.547Z,95.60
2022-07-26T21:19:28.306Z,95.52
2022-07-26T21:21:57.192Z,96.71
2022-07-26T21:24:25.009Z,96.27
2022-07-26T21:26:55.271Z,96.85
2022-07-26T21:29:22.990Z,98.32
2022-07-26T21:31:50.642Z,97.61
2022-07-26T21:34:19.257Z,98.79
2022-07-26T21:36:47.042Z,98.43
2022-07-26T21:39:14.921Z,98.04
2022-07-26T21:41:42.656Z,97.80
2022-07-26T21:44:10.925Z,98.39
2022-07-26T21:46:38.824Z,97.88
2022-07-26T21:49:06.571Z,99.66
2022-07-26T21:51:34.697Z,99.92
2022-07-26T21:54:02.334Z,100.00
2022-07-26T21:56:30.617Z,99.59
2022-07-26T21:59:00.137Z,99.48
2022-07-26T22:01:27.802Z,98.69
2022-07-26T22:03:55.928Z,98.22
2022-07-26T22:06:23.596Z,97.60
2022-07-26T22:08:52.035Z,98.98
2022-07-26T22:11:19.722Z,99.47
2022-07-26T22:13:47.529Z,99.09
2022-07-26T22:16:15.654Z,98.56
2022-07-26T22:18:43.676Z,98.14
2022-07-26T22:21:11.397Z,97.60
2022-07-26T22:23:39.202Z,97.04
2022-07-26T22:26:06.797Z,97.01
2022-07-26T22:28:34.918Z,97.03
2022-07-26T22:31:02.686Z,97.77
2022-07-26T22:33:30.309Z,99.08
2022-07-26T22:35:59.229Z,100.00
2022-07-26T22:38:26.834Z,99.67
2022-07-26T22:40:54.569Z,100.00
2022-07-26T22:43:22.277Z,100.00
2022-07-26T22:45:50.010Z,100.00
2022-07-26T22:48:18.130Z,100.00
2022-07-26T22:50:46.041Z,100.00
2022-07-26T22:53:15.331Z,100.00
2022-07-26T22:55:43.054Z,100.00
2022-07-26T22:58:10.661Z,100.00
2022-07-26T23:00:38.494Z,100.00
2022-07-26T23:03:10.336Z,100.00
2022-07-26T23:05:45.715Z,100.00
2022-07-26T23:11:03.581Z,100.00
2022-07-26T23:13:31.531Z,100.00
2022-07-26T23:16:04.123Z,100.00
2022-07-26T23:18:35.001Z,100.00
2022-07-26T23:21:03.829Z,100.00
2022-07-26T23:23:32.170Z,100.00
2022-07-26T23:25:59.957Z,100.00
2022-07-26T23:28:36.904Z,100.00
2022-07-26T23:31:07.849Z,100.00
2022-07-26T23:33:52.702Z,100.00
2022-07-26T23:36:23.440Z,100.00
2022-07-26T23:38:51.097Z,100.00
2022-07-26T23:41:19.487Z,100.00
2022-07-26T23:43:47.413Z,100.00
2022-07-26T23:46:15.579Z,100.00
2022-07-26T23:48:43.392Z,100.00
2022-07-26T23:51:11.176Z,100.00
2022-07-26T23:53:38.953Z,100.00
2022-07-26T23:56:06.696Z,100.00
2022-07-26T23:58:35.188Z,100.00
